Haines, AK

5:36 AM AKST on February 11, 2016 (GMT -0900)
Letnikof Cove | | Change Station
CLOSE
Current Station
Personal Weather Station
Location: Haines, AK
Elevation: 230 ft
Nearby Weather Stations

Elev 230 ft 59.17 °N, 135.39 °W | Updated 3 seconds ago

Light Rain
Light Rain
41.9 °F
Feels Like 42 °F
N
0.4
Wind Variable Wind from SE
Gusts 2.9 mph

Today
High -- | Low -- °F
--% Chance of Precip.
Yesterday
High -- | Low -- °F
Precip. -- in
Pressure 29.94 in
Visibility 9.0 miles
Clouds Mostly Cloudy 1400 ft
Mostly Cloudy 2200 ft
Overcast 2800 ft
Windchill 42 °F
Dew Point 40 °F
Humidity 94%
Rainfall 0.00 in
Snow Depth Not available.
7:48 AM 4:44 PM
Waxing Crescent, 12% visible
SPECI PAHN 111417Z AUTO 07011G22KT 9SM -RA BKN014 BKN022 OVC028 06/04 A2994 RMK AO2 P0001 T00560039 TSNO
Pressure 29.94 in
Visibility 9.0 miles
Clouds Mostly Cloudy 1400 ft
Mostly Cloudy 2200 ft
Overcast 2800 ft
Windchill 42 °F
Dew Point 40 °F
Humidity 94%
Rainfall 0.00 in
Snow Depth Not available.
7:48 AM 4:44 PM
Waxing Crescent, 12% visible
SPECI PAHN 111417Z AUTO 07011G22KT 9SM -RA BKN014 BKN022 OVC028 06/04 A2994 RMK AO2 P0001 T00560039 TSNO

10-Day Weather Forecast

Almanac

Astronomy

Feb. 11, 2016 Rise Set
Actual Time
Civil Twilight
Nautical Twilight
Astronomical Twilight
Moon
Length of Visible Light
Length of Day
Tomorrow will be .
, % of the Moon is Illuminated

Today's Extremes

State Highs State Lows

Community

WunderPhotos

Upload Photos

1,892,054 photos uploaded!

WunderBlog® & News

Nearby

Air Quality

  Air Quality AQ Index Pollutant
Not available.

Snow Depth

Station Depth Elevation

Earthquake Activity

City Distance Mag. Time & Date
Minimum magnitude displayed is 2.5.

Coastal Water Temperatures

Place Temperature

Stations

Nearby Weather Stations

Station Location Temp. Windchill Dew Point Humidity Wind Precip. Elev Updated Type
                   

Watches & Warnings

There are currently no watches in effect.